createdAt,value
2023-04-19T00:03:19.081Z,4.20
2023-04-19T00:07:05.318Z,4.10
2023-04-19T00:10:51.577Z,4.10
2023-04-19T00:14:37.870Z,3.70
2023-04-19T00:18:24.384Z,4.10
2023-04-19T00:22:16.848Z,4.20
2023-04-19T00:26:16.954Z,20.50
2023-04-19T00:30:21.483Z,7.00
2023-04-19T00:34:19.820Z,4.60
2023-04-19T00:38:21.334Z,5.10
2023-04-19T00:42:24.203Z,4.30
2023-04-19T00:46:24.261Z,3.80
2023-04-19T00:50:27.271Z,3.70
2023-04-19T00:54:26.237Z,3.60
2023-04-19T00:58:28.952Z,4.00
2023-04-19T01:02:27.422Z,3.90
2023-04-19T01:06:30.341Z,3.60
2023-04-19T01:10:30.329Z,4.10
2023-04-19T01:14:32.710Z,3.90
2023-04-19T01:18:32.387Z,4.50
2023-04-19T01:22:35.281Z,4.90
2023-04-19T01:26:35.548Z,4.90
2023-04-19T01:30:38.770Z,4.50
2023-04-19T01:34:38.416Z,3.80
2023-04-19T01:38:40.855Z,4.10
2023-04-19T01:42:42.456Z,5.20
2023-04-19T01:46:44.922Z,4.00
2023-04-19T01:50:45.514Z,4.50
2023-04-19T01:54:48.229Z,4.60
2023-04-19T01:58:48.380Z,4.70
2023-04-19T02:02:51.510Z,4.30
2023-04-19T02:06:51.471Z,4.50
2023-04-19T02:10:54.318Z,4.50
2023-04-19T02:14:54.436Z,6.80
2023-04-19T02:19:05.401Z,6.70
2023-04-19T02:23:05.567Z,6.90
2023-04-19T02:27:09.350Z,5.80
2023-04-19T02:31:09.450Z,5.20
2023-04-19T02:35:11.961Z,4.50
2023-04-19T02:39:11.412Z,4.70
2023-04-19T02:43:10.371Z,5.70
2023-04-19T02:47:11.161Z,6.60
2023-04-19T02:51:07.362Z,6.40
2023-04-19T02:55:11.289Z,4.30
2023-04-19T02:59:08.793Z,5.20
2023-04-19T03:03:09.802Z,4.50
2023-04-19T03:07:08.072Z,6.10
2023-04-19T03:11:08.552Z,6.10
2023-04-19T03:15:05.608Z,5.00
2023-04-19T03:19:06.229Z,4.80
2023-04-19T03:23:07.703Z,4.30
2023-04-19T03:27:08.581Z,4.40
2023-04-19T03:31:05.665Z,5.40
2023-04-19T03:35:06.164Z,5.70
2023-04-19T03:39:02.878Z,5.00
2023-04-19T03:43:03.636Z,5.20
2023-04-19T03:47:02.841Z,5.20
2023-04-19T03:51:07.487Z,5.30
2023-04-19T03:55:06.623Z,4.30
2023-04-19T03:59:10.486Z,5.10
2023-04-19T04:03:08.690Z,4.50
2023-04-19T04:07:09.285Z,3.90
2023-04-19T04:11:05.701Z,3.90
2023-04-19T04:15:07.736Z,4.10
2023-04-19T04:19:07.161Z,4.50
2023-04-19T04:23:10.837Z,3.90
2023-04-19T04:27:11.384Z,3.40
2023-04-19T04:31:14.642Z,3.20
2023-04-19T04:35:13.379Z,3.30
2023-04-19T04:39:15.819Z,3.00
2023-04-19T04:43:19.046Z,3.20
2023-04-19T04:47:18.781Z,3.70
2023-04-19T04:51:25.920Z,3.60
2023-04-19T04:55:25.862Z,3.30
2023-04-19T04:59:29.797Z,3.40
2023-04-19T05:03:30.928Z,3.10
2023-04-19T05:07:35.065Z,3.20
2023-04-19T05:11:34.944Z,2.90
2023-04-19T05:15:37.622Z,3.40
2023-04-19T05:19:37.764Z,3.30
2023-04-19T05:23:42.665Z,2.90
2023-04-19T05:27:42.768Z,3.10
2023-04-19T05:31:46.308Z,3.70
2023-04-19T05:35:58.877Z,3.10
2023-04-19T05:40:02.301Z,3.20
2023-04-19T05:47:45.768Z,3.30
2023-04-19T05:52:03.463Z,2.80
2023-04-19T05:56:16.691Z,3.00
2023-04-19T06:00:19.815Z,2.90
2023-04-19T06:04:26.069Z,3.50
2023-04-19T06:08:29.898Z,3.00
2023-04-19T06:12:27.172Z,2.80
2023-04-19T06:16:30.433Z,4.00
2023-04-19T06:20:28.848Z,3.00
2023-04-19T06:24:34.268Z,2.90
2023-04-19T06:28:34.697Z,3.10
2023-04-19T06:32:37.447Z,2.60
2023-04-19T06:36:35.846Z,3.40
2023-04-19T06:40:39.263Z,2.90
2023-04-19T06:44:38.764Z,3.10
2023-04-19T06:48:41.873Z,2.80
2023-04-19T06:52:41.790Z,3.00
2023-04-19T06:56:44.405Z,2.70
2023-04-19T07:00:43.854Z,3.30
2023-04-19T07:04:46.961Z,2.50
2023-04-19T07:08:50.614Z,2.60
2023-04-19T07:12:53.881Z,2.40
2023-04-19T07:16:55.939Z,3.00
2023-04-19T07:20:59.147Z,2.70
2023-04-19T07:25:06.163Z,2.60
2023-04-19T07:29:10.650Z,2.60
2023-04-19T07:33:09.270Z,2.80
2023-04-19T07:37:12.354Z,2.90
2023-04-19T11:43:18.184Z,3.30
2023-04-19T11:47:18.481Z,3.70
2023-04-19T11:51:18.081Z,3.60
2023-04-19T11:55:22.854Z,3.40
2023-04-19T11:59:22.048Z,4.00
2023-04-19T12:03:26.452Z,4.10
2023-04-19T12:07:23.416Z,4.20
2023-04-19T12:11:23.050Z,3.60
2023-04-19T12:15:25.830Z,3.40
2023-04-19T12:19:26.064Z,3.40
2023-04-19T12:23:26.426Z,3.10
2023-04-19T12:27:25.950Z,3.00
2023-04-19T12:31:29.265Z,4.30
2023-04-19T12:35:28.356Z,3.60
2023-04-19T12:39:40.282Z,3.70
2023-04-19T12:43:43.604Z,3.60
2023-04-19T12:51:26.097Z,3.90
2023-04-19T12:55:28.991Z,3.40
2023-04-19T12:59:28.113Z,4.10
2023-04-19T13:03:30.955Z,6.10
2023-04-19T13:07:31.053Z,4.00
2023-04-19T13:11:34.241Z,3.60
2023-04-19T13:15:34.071Z,3.40
2023-04-19T13:19:37.120Z,3.70
2023-04-19T13:23:37.375Z,3.10
2023-04-19T13:27:40.786Z,3.90
2023-04-19T13:31:41.254Z,3.30
2023-04-19T13:35:44.859Z,3.90
2023-04-19T13:39:43.237Z,3.30
2023-04-19T13:43:46.150Z,2.80
2023-04-19T13:47:46.306Z,3.70
2023-04-19T13:51:50.633Z,3.30
2023-04-19T13:59:32.294Z,4.10
2023-04-19T14:03:26.891Z,4.00
2023-04-19T14:07:17.292Z,4.40
2023-04-19T14:11:03.656Z,3.60
2023-04-19T14:14:50.410Z,4.80
2023-04-19T14:18:37.113Z,3.90
2023-04-19T14:22:23.738Z,4.30
2023-04-19T14:26:11.373Z,6.20
2023-04-19T14:29:58.529Z,5.90
2023-04-19T14:33:45.072Z,4.00
2023-04-19T14:37:31.565Z,4.60
2023-04-19T14:41:18.407Z,4.70
2023-04-19T14:45:05.254Z,4.80
2023-04-19T14:48:52.333Z,4.90
2023-04-19T14:52:39.641Z,5.20
2023-04-19T14:56:26.497Z,7.00
2023-04-19T15:00:13.202Z,8.50
2023-04-19T15:04:04.299Z,6.20
2023-04-19T15:07:51.889Z,4.80
2023-04-19T15:11:38.387Z,4.90
2023-04-19T15:15:24.898Z,8.10
2023-04-19T15:19:11.530Z,7.60
2023-04-19T15:22:58.809Z,6.80
2023-04-19T15:26:45.533Z,5.40
2023-04-19T15:30:32.289Z,6.80
2023-04-19T15:34:18.951Z,7.20
2023-04-19T15:38:05.541Z,6.50
2023-04-19T15:41:52.096Z,5.30
2023-04-19T15:45:38.379Z,5.90
2023-04-19T15:49:32.993Z,18.30
2023-04-19T15:53:30.196Z,12.30
2023-04-19T15:57:29.508Z,10.90
2023-04-19T16:01:32.398Z,8.90
2023-04-19T16:05:32.451Z,10.50
2023-04-19T16:09:34.876Z,8.30
2023-04-19T16:13:34.540Z,8.00
2023-04-19T16:17:36.949Z,6.40
2023-04-19T16:21:36.443Z,7.40
2023-04-19T16:25:37.377Z,6.70
2023-04-19T16:29:24.987Z,8.00
2023-04-19T16:33:12.942Z,8.60
2023-04-19T16:37:12.486Z,8.10
2023-04-19T16:41:15.246Z,7.00
2023-04-19T16:45:14.262Z,6.70
2023-04-19T16:49:17.155Z,8.20
2023-04-19T16:53:11.759Z,5.40
2023-04-19T16:57:10.450Z,5.70
2023-04-19T17:01:10.960Z,6.00
2023-04-19T17:05:14.038Z,5.60
2023-04-19T17:09:12.465Z,7.80
2023-04-19T17:13:15.540Z,7.80
2023-04-19T17:17:14.401Z,8.40
2023-04-19T17:21:16.675Z,11.80
2023-04-19T17:25:11.120Z,8.60
2023-04-19T17:29:09.837Z,6.30
2023-04-19T17:33:14.544Z,4.50
2023-04-19T17:37:18.122Z,4.00
2023-04-19T17:41:16.551Z,4.00
2023-04-19T17:45:19.583Z,4.50
2023-04-19T17:49:18.758Z,4.10
2023-04-19T17:53:20.849Z,3.80
2023-04-19T17:57:15.974Z,4.10
2023-04-19T18:01:17.335Z,4.30
2023-04-19T18:05:13.557Z,4.30
2023-04-19T18:09:13.991Z,3.90
2023-04-19T18:13:10.746Z,3.90
2023-04-19T18:17:11.405Z,3.40
2023-04-19T18:21:07.614Z,4.10
2023-04-19T18:25:06.401Z,3.90
2023-04-19T18:29:07.463Z,4.80
2023-04-19T18:33:08.239Z,4.30
2023-04-19T18:37:06.015Z,4.00
2023-04-19T18:41:04.747Z,4.10
2023-04-19T18:45:05.314Z,3.90
2023-04-19T18:48:59.703Z,4.00
2023-04-19T18:52:58.382Z,4.60
2023-04-19T18:57:21.738Z,2.90
2023-04-19T19:01:19.321Z,3.80
2023-04-19T19:05:16.371Z,3.00
2023-04-19T19:09:22.626Z,3.50
2023-04-19T19:13:17.990Z,3.10
2023-04-19T19:17:16.628Z,3.20
2023-04-19T19:21:14.719Z,3.90
2023-04-19T19:25:17.690Z,3.70
2023-04-19T19:29:16.277Z,3.10
2023-04-19T19:33:16.987Z,3.10
2023-04-19T19:37:29.023Z,2.80
2023-04-19T19:42:03.381Z,2.90
2023-04-19T19:45:48.370Z,3.90
2023-04-19T19:50:13.737Z,3.50
2023-04-19T19:54:05.152Z,3.10
2023-04-19T20:02:07.063Z,2.90
2023-04-19T20:10:10.797Z,3.50
2023-04-19T20:14:08.214Z,2.40
2023-04-19T20:18:08.651Z,2.80
2023-04-19T20:22:05.938Z,2.90
2023-04-19T20:26:04.490Z,3.40
2023-04-19T20:29:58.720Z,2.70
2023-04-19T20:34:02.937Z,3.10
2023-04-19T20:41:39.946Z,2.60
2023-04-19T20:45:40.606Z,3.50
2023-04-19T20:49:37.153Z,2.60
2023-04-19T20:53:37.082Z,3.30
2023-04-19T20:57:31.294Z,2.90
2023-04-19T21:01:35.470Z,2.60
2023-04-19T21:09:12.101Z,3.20
2023-04-19T21:13:12.447Z,3.60
2023-04-19T21:17:08.984Z,3.10
2023-04-19T21:21:09.783Z,3.90
2023-04-19T21:25:05.921Z,4.10
2023-04-19T21:29:04.275Z,3.70
2023-04-19T21:33:04.646Z,3.50
2023-04-19T21:37:04.818Z,2.80
2023-04-19T21:41:02.084Z,3.40
2023-04-19T21:45:02.580Z,3.00
2023-04-19T21:48:59.244Z,2.70
2023-04-19T21:52:57.680Z,2.80
2023-04-19T21:56:51.912Z,4.10
2023-04-19T22:00:52.565Z,4.00
2023-04-19T22:04:48.829Z,3.70
2023-04-19T22:08:49.692Z,3.70
2023-04-19T22:12:57.371Z,3.30
2023-04-19T22:16:59.062Z,3.00
2023-04-19T22:20:53.753Z,3.10
2023-04-19T22:24:58.733Z,4.40
2023-04-19T22:28:55.047Z,3.40
2023-04-19T22:32:55.661Z,2.80
2023-04-19T22:36:52.020Z,3.30
2023-04-19T22:40:52.353Z,3.60
2023-04-19T22:44:50.841Z,3.40
2023-04-19T22:48:45.594Z,3.30
2023-04-19T22:52:49.948Z,2.80
2023-04-19T22:56:45.974Z,2.30
2023-04-19T23:00:46.400Z,2.80
2023-04-19T23:04:43.683Z,3.60
2023-04-19T23:08:43.970Z,3.20
2023-04-19T23:12:38.239Z,4.10
2023-04-19T23:16:36.373Z,3.00
2023-04-19T23:20:37.212Z,3.40
2023-04-19T23:24:37.450Z,2.90
2023-04-19T23:28:34.048Z,2.80
2023-04-19T23:32:34.587Z,2.60
2023-04-19T23:36:31.052Z,2.80
2023-04-19T23:40:29.211Z,2.70
2023-04-19T23:44:24.365Z,3.10
2023-04-19T23:48:23.880Z,3.20
2023-04-19T23:52:20.192Z,2.60
2023-04-19T23:56:20.821Z,3.40
